sensor_id;sensor_type;location;lat;lon;timestamp;temperature;humidity
28189;DHT22;15471;51.166;4.470;2023-03-23T00:01:21;12.70;99.90
28189;DHT22;15471;51.166;4.470;2023-03-23T00:03:50;12.70;99.90
28189;DHT22;15471;51.166;4.470;2023-03-23T00:06:18;12.70;99.90
28189;DHT22;15471;51.166;4.470;2023-03-23T00:08:46;12.80;99.90
28189;DHT22;15471;51.166;4.470;2023-03-23T00:11:21;12.70;99.90
28189;DHT22;15471;51.166;4.470;2023-03-23T00:13:50;12.70;99.90
28189;DHT22;15471;51.166;4.470;2023-03-23T00:16:22;12.70;99.90
28189;DHT22;15471;51.166;4.470;2023-03-23T00:18:55;12.80;99.90
28189;DHT22;15471;51.166;4.470;2023-03-23T00:21:23;12.70;99.90
28189;DHT22;15471;51.166;4.470;2023-03-23T00:24:08;12.60;99.90
28189;DHT22;15471;51.166;4.470;2023-03-23T00:26:40;12.70;99.90
28189;DHT22;15471;51.166;4.470;2023-03-23T00:29:16;12.70;99.90
28189;DHT22;15471;51.166;4.470;2023-03-23T00:31:43;12.70;99.90
28189;DHT22;15471;51.166;4.470;2023-03-23T00:34:14;12.70;99.90
28189;DHT22;15471;51.166;4.470;2023-03-23T00:36:48;12.70;99.90
28189;DHT22;15471;51.166;4.470;2023-03-23T00:39:15;12.60;99.90
28189;DHT22;15471;51.166;4.470;2023-03-23T00:41:47;12.70;99.90
28189;DHT22;15471;51.166;4.470;2023-03-23T00:44:14;12.80;99.90
28189;DHT22;15471;51.166;4.470;2023-03-23T00:46:43;12.70;99.90
28189;DHT22;15471;51.166;4.470;2023-03-23T00:49:20;12.70;99.90
28189;DHT22;15471;51.166;4.470;2023-03-23T00:51:51;12.80;99.90
28189;DHT22;15471;51.166;4.470;2023-03-23T00:54:17;12.80;99.90
28189;DHT22;15471;51.166;4.470;2023-03-23T00:56:44;12.80;99.90
28189;DHT22;15471;51.166;4.470;2023-03-23T00:59:10;12.90;99.90
28189;DHT22;15471;51.166;4.470;2023-03-23T01:01:40;12.80;99.90
28189;DHT22;15471;51.166;4.470;2023-03-23T01:04:06;12.90;99.90
28189;DHT22;15471;51.166;4.470;2023-03-23T01:06:35;12.90;99.90
28189;DHT22;15471;51.166;4.470;2023-03-23T01:09:08;12.90;99.90
28189;DHT22;15471;51.166;4.470;2023-03-23T01:11:34;12.90;99.90
28189;DHT22;15471;51.166;4.470;2023-03-23T01:14:01;13.00;99.90
28189;DHT22;15471;51.166;4.470;2023-03-23T01:16:28;12.90;99.90
28189;DHT22;15471;51.166;4.470;2023-03-23T01:18:54;12.90;99.90
28189;DHT22;15471;51.166;4.470;2023-03-23T01:21:27;13.00;99.90
28189;DHT22;15471;51.166;4.470;2023-03-23T01:23:53;13.10;99.90
28189;DHT22;15471;51.166;4.470;2023-03-23T01:26:21;12.90;99.90
28189;DHT22;15471;51.166;4.470;2023-03-23T01:28:49;12.90;99.90
28189;DHT22;15471;51.166;4.470;2023-03-23T01:31:19;13.00;99.90
28189;DHT22;15471;51.166;4.470;2023-03-23T01:33:47;13.10;99.90
28189;DHT22;15471;51.166;4.470;2023-03-23T01:36:16;13.00;99.90
28189;DHT22;15471;51.166;4.470;2023-03-23T01:38:47;13.10;99.90
28189;DHT22;15471;51.166;4.470;2023-03-23T01:41:18;13.10;99.90
28189;DHT22;15471;51.166;4.470;2023-03-23T01:44:01;13.10;99.90
28189;DHT22;15471;51.166;4.470;2023-03-23T01:46:36;13.10;99.90
28189;DHT22;15471;51.166;4.470;2023-03-23T01:49:14;13.10;99.90
28189;DHT22;15471;51.166;4.470;2023-03-23T01:51:51;13.00;99.90
28189;DHT22;15471;51.166;4.470;2023-03-23T01:54:20;13.00;99.90
28189;DHT22;15471;51.166;4.470;2023-03-23T01:57:04;13.00;99.90
28189;DHT22;15471;51.166;4.470;2023-03-23T01:59:35;12.90;99.90
28189;DHT22;15471;51.166;4.470;2023-03-23T02:02:20;13.00;99.90
28189;DHT22;15471;51.166;4.470;2023-03-23T02:04:47;13.00;99.90
28189;DHT22;15471;51.166;4.470;2023-03-23T02:07:15;13.00;99.90
28189;DHT22;15471;51.166;4.470;2023-03-23T02:09:43;13.00;99.90
28189;DHT22;15471;51.166;4.470;2023-03-23T02:12:09;13.10;99.90
28189;DHT22;15471;51.166;4.470;2023-03-23T02:14:39;13.00;99.90
28189;DHT22;15471;51.166;4.470;2023-03-23T02:17:09;13.00;99.90
28189;DHT22;15471;51.166;4.470;2023-03-23T02:22:43;13.00;99.90
28189;DHT22;15471;51.166;4.470;2023-03-23T02:25:49;13.10;99.90
28189;DHT22;15471;51.166;4.470;2023-03-23T02:31:22;13.10;99.90
28189;DHT22;15471;51.166;4.470;2023-03-23T02:34:27;13.10;99.90
28189;DHT22;15471;51.166;4.470;2023-03-23T02:36:59;13.00;99.90
28189;DHT22;15471;51.166;4.470;2023-03-23T02:42:08;13.00;99.90
28189;DHT22;15471;51.166;4.470;2023-03-23T02:44:38;13.00;99.90
28189;DHT22;15471;51.166;4.470;2023-03-23T02:47:11;12.90;99.90
28189;DHT22;15471;51.166;4.470;2023-03-23T02:49:40;13.00;99.90
28189;DHT22;15471;51.166;4.470;2023-03-23T02:52:10;13.00;99.90
28189;DHT22;15471;51.166;4.470;2023-03-23T02:54:49;12.90;99.90
28189;DHT22;15471;51.166;4.470;2023-03-23T02:57:17;12.90;99.90
28189;DHT22;15471;51.166;4.470;2023-03-23T02:59:46;12.80;99.90
28189;DHT22;15471;51.166;4.470;2023-03-23T03:02:21;12.90;99.90
28189;DHT22;15471;51.166;4.470;2023-03-23T03:05:09;13.00;99.90
28189;DHT22;15471;51.166;4.470;2023-03-23T03:07:57;12.90;99.90
28189;DHT22;15471;51.166;4.470;2023-03-23T03:10:32;12.90;99.90
28189;DHT22;15471;51.166;4.470;2023-03-23T03:13:23;13.00;99.90
28189;DHT22;15471;51.166;4.470;2023-03-23T03:16:04;12.80;99.90
28189;DHT22;15471;51.166;4.470;2023-03-23T03:21:08;12.80;99.90
28189;DHT22;15471;51.166;4.470;2023-03-23T03:23:38;12.80;99.90
28189;DHT22;15471;51.166;4.470;2023-03-23T03:26:07;12.90;99.90
28189;DHT22;15471;51.166;4.470;2023-03-23T03:28:49;12.90;99.90
28189;DHT22;15471;51.166;4.470;2023-03-23T03:31:24;12.80;99.90
28189;DHT22;15471;51.166;4.470;2023-03-23T03:33:58;12.90;99.90
28189;DHT22;15471;51.166;4.470;2023-03-23T03:36:31;12.80;99.90
28189;DHT22;15471;51.166;4.470;2023-03-23T03:39:08;12.90;99.90
28189;DHT22;15471;51.166;4.470;2023-03-23T03:41:37;12.90;99.90
28189;DHT22;15471;51.166;4.470;2023-03-23T03:44:05;12.90;99.90
28189;DHT22;15471;51.166;4.470;2023-03-23T03:46:36;12.90;99.90
28189;DHT22;15471;51.166;4.470;2023-03-23T03:49:05;13.00;99.90
28189;DHT22;15471;51.166;4.470;2023-03-23T03:51:35;13.00;99.90
28189;DHT22;15471;51.166;4.470;2023-03-23T03:54:04;12.90;99.90
28189;DHT22;15471;51.166;4.470;2023-03-23T03:56:31;12.90;99.90
28189;DHT22;15471;51.166;4.470;2023-03-23T03:59:24;13.00;99.90
28189;DHT22;15471;51.166;4.470;2023-03-23T04:02:12;12.90;99.90
28189;DHT22;15471;51.166;4.470;2023-03-23T04:04:42;12.90;99.90
28189;DHT22;15471;51.166;4.470;2023-03-23T04:07:09;12.80;99.90
28189;DHT22;15471;51.166;4.470;2023-03-23T04:09:43;12.80;99.90
28189;DHT22;15471;51.166;4.470;2023-03-23T04:12:13;12.80;99.90
28189;DHT22;15471;51.166;4.470;2023-03-23T04:14:55;12.80;99.90
28189;DHT22;15471;51.166;4.470;2023-03-23T04:17:25;12.70;99.90
28189;DHT22;15471;51.166;4.470;2023-03-23T04:19:53;12.70;99.90
28189;DHT22;15471;51.166;4.470;2023-03-23T04:22:24;12.70;99.90
28189;DHT22;15471;51.166;4.470;2023-03-23T04:24:59;12.70;99.90
28189;DHT22;15471;51.166;4.470;2023-03-23T04:27:27;12.60;99.90
28189;DHT22;15471;51.166;4.470;2023-03-23T04:29:57;12.40;99.90
28189;DHT22;15471;51.166;4.470;2023-03-23T04:32:33;12.20;99.90
28189;DHT22;15471;51.166;4.470;2023-03-23T04:34:59;12.00;99.90
28189;DHT22;15471;51.166;4.470;2023-03-23T04:37:33;11.90;99.90
28189;DHT22;15471;51.166;4.470;2023-03-23T04:39:59;11.80;99.90
28189;DHT22;15471;51.166;4.470;2023-03-23T04:42:28;11.70;99.90
28189;DHT22;15471;51.166;4.470;2023-03-23T04:45:16;11.70;99.90
28189;DHT22;15471;51.166;4.470;2023-03-23T04:47:52;11.60;99.90
28189;DHT22;15471;51.166;4.470;2023-03-23T04:50:27;11.60;99.90
28189;DHT22;15471;51.166;4.470;2023-03-23T04:53:00;11.50;99.90
28189;DHT22;15471;51.166;4.470;2023-03-23T04:55:35;11.40;99.90
28189;DHT22;15471;51.166;4.470;2023-03-23T04:58:03;11.40;99.90
28189;DHT22;15471;51.166;4.470;2023-03-23T05:00:48;11.30;99.90
28189;DHT22;15471;51.166;4.470;2023-03-23T05:03:18;11.40;99.90
28189;DHT22;15471;51.166;4.470;2023-03-23T05:05:46;11.40;99.90
28189;DHT22;15471;51.166;4.470;2023-03-23T05:08:19;11.40;99.90
28189;DHT22;15471;51.166;4.470;2023-03-23T05:10:54;11.40;99.90
28189;DHT22;15471;51.166;4.470;2023-03-23T05:13:21;11.50;99.90
28189;DHT22;15471;51.166;4.470;2023-03-23T05:15:51;11.60;99.90
28189;DHT22;15471;51.166;4.470;2023-03-23T05:18:17;11.60;99.90
28189;DHT22;15471;51.166;4.470;2023-03-23T05:20:46;11.60;99.90
28189;DHT22;15471;51.166;4.470;2023-03-23T05:23:16;11.60;99.90
28189;DHT22;15471;51.166;4.470;2023-03-23T05:25:52;11.80;99.90
28189;DHT22;15471;51.166;4.470;2023-03-23T05:28:19;11.80;99.90
28189;DHT22;15471;51.166;4.470;2023-03-23T05:31:16;11.80;99.90
28189;DHT22;15471;51.166;4.470;2023-03-23T05:33:44;11.90;99.90
28189;DHT22;15471;51.166;4.470;2023-03-23T05:36:34;11.90;99.90
28189;DHT22;15471;51.166;4.470;2023-03-23T05:39:11;11.90;99.90
28189;DHT22;15471;51.166;4.470;2023-03-23T05:42:00;12.00;99.90
28189;DHT22;15471;51.166;4.470;2023-03-23T05:44:36;12.00;99.90
28189;DHT22;15471;51.166;4.470;2023-03-23T05:47:03;12.00;99.90
28189;DHT22;15471;51.166;4.470;2023-03-23T05:49:30;12.00;99.90
28189;DHT22;15471;51.166;4.470;2023-03-23T05:51:56;11.90;99.90
28189;DHT22;15471;51.166;4.470;2023-03-23T05:54:25;11.90;99.90
28189;DHT22;15471;51.166;4.470;2023-03-23T05:56:52;11.80;99.90
28189;DHT22;15471;51.166;4.470;2023-03-23T05:59:23;11.70;99.90
28189;DHT22;15471;51.166;4.470;2023-03-23T06:01:52;11.60;99.90
28189;DHT22;15471;51.166;4.470;2023-03-23T06:04:21;11.50;99.90
28189;DHT22;15471;51.166;4.470;2023-03-23T06:07:13;11.40;99.90
28189;DHT22;15471;51.166;4.470;2023-03-23T06:09:46;11.40;99.90
28189;DHT22;15471;51.166;4.470;2023-03-23T06:12:41;11.40;99.90
28189;DHT22;15471;51.166;4.470;2023-03-23T06:15:10;11.40;99.90
28189;DHT22;15471;51.166;4.470;2023-03-23T06:18:00;11.50;99.90
28189;DHT22;15471;51.166;4.470;2023-03-23T06:20:35;11.50;99.90
28189;DHT22;15471;51.166;4.470;2023-03-23T06:23:14;11.30;99.90
28189;DHT22;15471;51.166;4.470;2023-03-23T06:25:43;11.40;99.90
28189;DHT22;15471;51.166;4.470;2023-03-23T06:28:10;11.30;99.90
28189;DHT22;15471;51.166;4.470;2023-03-23T06:30:41;11.40;99.90
28189;DHT22;15471;51.166;4.470;2023-03-23T06:33:08;11.40;99.90
28189;DHT22;15471;51.166;4.470;2023-03-23T06:35:55;11.30;99.90
28189;DHT22;15471;51.166;4.470;2023-03-23T06:38:36;11.30;99.90
28189;DHT22;15471;51.166;4.470;2023-03-23T06:41:02;11.20;99.90
28189;DHT22;15471;51.166;4.470;2023-03-23T06:43:29;11.00;99.90
28189;DHT22;15471;51.166;4.470;2023-03-23T06:46:08;10.70;99.90
28189;DHT22;15471;51.166;4.470;2023-03-23T06:48:40;10.70;99.90
28189;DHT22;15471;51.166;4.470;2023-03-23T06:51:07;10.70;99.90
28189;DHT22;15471;51.166;4.470;2023-03-23T06:53:35;10.70;99.90
28189;DHT22;15471;51.166;4.470;2023-03-23T06:56:03;10.60;99.90
28189;DHT22;15471;51.166;4.470;2023-03-23T06:58:30;10.60;99.90
28189;DHT22;15471;51.166;4.470;2023-03-23T07:00:57;10.60;99.90
28189;DHT22;15471;51.166;4.470;2023-03-23T07:03:31;10.50;99.90
28189;DHT22;15471;51.166;4.470;2023-03-23T07:05:59;10.50;99.90
28189;DHT22;15471;51.166;4.470;2023-03-23T07:08:29;10.50;99.90
28189;DHT22;15471;51.166;4.470;2023-03-23T07:10:55;10.50;99.90
28189;DHT22;15471;51.166;4.470;2023-03-23T07:13:27;10.50;99.90
28189;DHT22;15471;51.166;4.470;2023-03-23T07:15:57;10.50;99.90
28189;DHT22;15471;51.166;4.470;2023-03-23T07:18:24;10.50;99.90
28189;DHT22;15471;51.166;4.470;2023-03-23T07:20:53;10.40;99.90
28189;DHT22;15471;51.166;4.470;2023-03-23T07:23:22;10.40;99.90
28189;DHT22;15471;51.166;4.470;2023-03-23T07:25:57;10.40;99.90
28189;DHT22;15471;51.166;4.470;2023-03-23T07:28:30;10.50;99.90
28189;DHT22;15471;51.166;4.470;2023-03-23T07:31:01;10.50;99.90
28189;DHT22;15471;51.166;4.470;2023-03-23T07:33:27;10.50;99.90
28189;DHT22;15471;51.166;4.470;2023-03-23T07:35:59;10.40;99.90
28189;DHT22;15471;51.166;4.470;2023-03-23T07:38:26;10.30;99.90
28189;DHT22;15471;51.166;4.470;2023-03-23T07:40:54;10.40;99.90
28189;DHT22;15471;51.166;4.470;2023-03-23T07:43:20;10.30;99.90
28189;DHT22;15471;51.166;4.470;2023-03-23T07:46:05;10.30;99.90
28189;DHT22;15471;51.166;4.470;2023-03-23T07:48:51;10.20;99.90
28189;DHT22;15471;51.166;4.470;2023-03-23T07:51:20;10.30;99.90
28189;DHT22;15471;51.166;4.470;2023-03-23T07:53:49;10.30;99.90
28189;DHT22;15471;51.166;4.470;2023-03-23T07:56:47;10.40;99.90
28189;DHT22;15471;51.166;4.470;2023-03-23T07:59:17;10.40;99.90
28189;DHT22;15471;51.166;4.470;2023-03-23T08:01:43;10.50;99.90
28189;DHT22;15471;51.166;4.470;2023-03-23T08:04:32;10.50;99.90
28189;DHT22;15471;51.166;4.470;2023-03-23T08:07:20;10.60;99.90
28189;DHT22;15471;51.166;4.470;2023-03-23T08:10:02;10.60;99.90
28189;DHT22;15471;51.166;4.470;2023-03-23T08:12:28;10.80;99.90
28189;DHT22;15471;51.166;4.470;2023-03-23T08:15:14;10.90;99.90
28189;DHT22;15471;51.166;4.470;2023-03-23T08:18:06;10.90;99.90
28189;DHT22;15471;51.166;4.470;2023-03-23T08:20:35;11.00;99.90
28189;DHT22;15471;51.166;4.470;2023-03-23T08:23:19;11.10;99.90
28189;DHT22;15471;51.166;4.470;2023-03-23T08:26:14;11.10;99.90
28189;DHT22;15471;51.166;4.470;2023-03-23T08:29:11;11.00;99.90
28189;DHT22;15471;51.166;4.470;2023-03-23T08:32:09;11.20;99.90
28189;DHT22;15471;51.166;4.470;2023-03-23T08:34:53;11.10;99.90
28189;DHT22;15471;51.166;4.470;2023-03-23T08:37:47;11.20;99.90
28189;DHT22;15471;51.166;4.470;2023-03-23T08:40:52;11.20;99.90
28189;DHT22;15471;51.166;4.470;2023-03-23T08:43:47;11.30;99.90
28189;DHT22;15471;51.166;4.470;2023-03-23T08:46:33;11.50;99.90
28189;DHT22;15471;51.166;4.470;2023-03-23T08:49:31;11.80;99.90
28189;DHT22;15471;51.166;4.470;2023-03-23T08:52:21;12.70;99.90
28189;DHT22;15471;51.166;4.470;2023-03-23T08:55:13;13.70;99.90
28189;DHT22;15471;51.166;4.470;2023-03-23T08:58:06;13.50;99.90
28189;DHT22;15471;51.166;4.470;2023-03-23T09:00:58;13.70;99.90
28189;DHT22;15471;51.166;4.470;2023-03-23T09:03:43;14.30;99.90
28189;DHT22;15471;51.166;4.470;2023-03-23T09:06:23;14.60;99.90
28189;DHT22;15471;51.166;4.470;2023-03-23T09:08:49;14.70;99.90
28189;DHT22;15471;51.166;4.470;2023-03-23T09:11:15;14.60;99.90
28189;DHT22;15471;51.166;4.470;2023-03-23T09:13:42;15.00;99.90
28189;DHT22;15471;51.166;4.470;2023-03-23T09:16:08;15.40;99.90
28189;DHT22;15471;51.166;4.470;2023-03-23T09:21:18;15.10;99.90
28189;DHT22;15471;51.166;4.470;2023-03-23T09:23:45;14.90;99.90
28189;DHT22;15471;51.166;4.470;2023-03-23T09:26:22;15.10;99.90
28189;DHT22;15471;51.166;4.470;2023-03-23T09:28:48;15.10;99.90
28189;DHT22;15471;51.166;4.470;2023-03-23T09:31:24;15.30;99.90
28189;DHT22;15471;51.166;4.470;2023-03-23T09:33:53;15.00;99.90
28189;DHT22;15471;51.166;4.470;2023-03-23T09:36:22;15.00;99.90
28189;DHT22;15471;51.166;4.470;2023-03-23T09:38:52;14.60;99.90
28189;DHT22;15471;51.166;4.470;2023-03-23T09:41:34;14.80;99.90
28189;DHT22;15471;51.166;4.470;2023-03-23T09:44:13;15.10;99.90
28189;DHT22;15471;51.166;4.470;2023-03-23T09:47:05;14.90;99.90
28189;DHT22;15471;51.166;4.470;2023-03-23T09:50:19;15.00;99.90
28189;DHT22;15471;51.166;4.470;2023-03-23T09:55:43;15.10;99.90
28189;DHT22;15471;51.166;4.470;2023-03-23T09:58:33;15.50;99.90
28189;DHT22;15471;51.166;4.470;2023-03-23T10:01:13;15.60;99.90
28189;DHT22;15471;51.166;4.470;2023-03-23T10:09:16;15.30;99.90
28189;DHT22;15471;51.166;4.470;2023-03-23T10:14:46;14.80;99.90
28189;DHT22;15471;51.166;4.470;2023-03-23T10:27:32;15.50;99.90
28189;DHT22;15471;51.166;4.470;2023-03-23T10:36:28;15.70;99.90
28189;DHT22;15471;51.166;4.470;2023-03-23T10:45:22;15.40;99.90
28189;DHT22;15471;51.166;4.470;2023-03-23T10:47:58;15.10;99.90
28189;DHT22;15471;51.166;4.470;2023-03-23T10:50:31;15.10;99.90
28189;DHT22;15471;51.166;4.470;2023-03-23T10:53:00;15.10;99.90
28189;DHT22;15471;51.166;4.470;2023-03-23T10:55:41;15.10;99.90
28189;DHT22;15471;51.166;4.470;2023-03-23T10:58:11;15.10;99.90
28189;DHT22;15471;51.166;4.470;2023-03-23T11:00:46;15.30;99.90
28189;DHT22;15471;51.166;4.470;2023-03-23T11:05:48;15.70;99.90
28189;DHT22;15471;51.166;4.470;2023-03-23T11:08:22;15.60;99.90
28189;DHT22;15471;51.166;4.470;2023-03-23T11:13:17;15.60;99.90
28189;DHT22;15471;51.166;4.470;2023-03-23T11:15:46;15.70;99.90
28189;DHT22;15471;51.166;4.470;2023-03-23T11:18:38;15.70;99.90
28189;DHT22;15471;51.166;4.470;2023-03-23T11:21:23;15.70;99.90
28189;DHT22;15471;51.166;4.470;2023-03-23T11:36:14;16.10;99.90
28189;DHT22;15471;51.166;4.470;2023-03-23T11:38:47;15.90;99.90
28189;DHT22;15471;51.166;4.470;2023-03-23T11:44:14;15.80;99.90
28189;DHT22;15471;51.166;4.470;2023-03-23T11:47:04;15.90;99.90
28189;DHT22;15471;51.166;4.470;2023-03-23T11:52:50;16.60;99.90
28189;DHT22;15471;51.166;4.470;2023-03-23T11:55:37;16.50;99.90
28189;DHT22;15471;51.166;4.470;2023-03-23T11:58:12;16.50;99.90
28189;DHT22;15471;51.166;4.470;2023-03-23T12:01:02;16.40;99.90
28189;DHT22;15471;51.166;4.470;2023-03-23T12:06:53;16.60;99.90
28189;DHT22;15471;51.166;4.470;2023-03-23T12:14:40;17.00;99.90
28189;DHT22;15471;51.166;4.470;2023-03-23T12:17:35;17.00;99.90
28189;DHT22;15471;51.166;4.470;2023-03-23T12:23:05;16.70;99.90
28189;DHT22;15471;51.166;4.470;2023-03-23T12:29:16;16.90;99.90
28189;DHT22;15471;51.166;4.470;2023-03-23T12:31:37;17.00;99.90
28189;DHT22;15471;51.166;4.470;2023-03-23T12:34:22;17.30;99.90
28189;DHT22;15471;51.166;4.470;2023-03-23T12:42:37;16.90;99.90
28189;DHT22;15471;51.166;4.470;2023-03-23T12:47:59;17.00;99.90
28189;DHT22;15471;51.166;4.470;2023-03-23T12:50:40;17.20;99.90
28189;DHT22;15471;51.166;4.470;2023-03-23T12:53:23;17.70;99.90
28189;DHT22;15471;51.166;4.470;2023-03-23T12:59:03;18.10;99.90
28189;DHT22;15471;51.166;4.470;2023-03-23T13:01:38;17.90;99.90
28189;DHT22;15471;51.166;4.470;2023-03-23T13:04:16;18.20;99.90
28189;DHT22;15471;51.166;4.470;2023-03-23T13:06:49;18.40;99.90
28189;DHT22;15471;51.166;4.470;2023-03-23T13:09:50;18.30;99.90
28189;DHT22;15471;51.166;4.470;2023-03-23T13:12:21;18.10;99.90
28189;DHT22;15471;51.166;4.470;2023-03-23T13:15:00;17.80;99.90
28189;DHT22;15471;51.166;4.470;2023-03-23T13:17:57;17.60;99.90
28189;DHT22;15471;51.166;4.470;2023-03-23T13:20:47;17.40;99.90
28189;DHT22;15471;51.166;4.470;2023-03-23T13:23:21;17.30;99.90
28189;DHT22;15471;51.166;4.470;2023-03-23T13:26:14;17.20;99.90
28189;DHT22;15471;51.166;4.470;2023-03-23T13:34:24;15.50;99.90
28189;DHT22;15471;51.166;4.470;2023-03-23T13:39:27;13.50;99.90
28189;DHT22;15471;51.166;4.470;2023-03-23T13:44:54;12.90;99.90
28189;DHT22;15471;51.166;4.470;2023-03-23T13:50:03;13.10;99.90
28189;DHT22;15471;51.166;4.470;2023-03-23T13:53:00;13.40;99.90
28189;DHT22;15471;51.166;4.470;2023-03-23T14:03:26;14.30;99.90
28189;DHT22;15471;51.166;4.470;2023-03-23T14:08:37;14.80;99.90
28189;DHT22;15471;51.166;4.470;2023-03-23T14:11:20;15.00;99.90
28189;DHT22;15471;51.166;4.470;2023-03-23T14:14:03;15.00;99.90
28189;DHT22;15471;51.166;4.470;2023-03-23T14:16:43;14.90;99.90
28189;DHT22;15471;51.166;4.470;2023-03-23T14:19:21;14.30;99.90
28189;DHT22;15471;51.166;4.470;2023-03-23T14:21:56;13.50;99.90
28189;DHT22;15471;51.166;4.470;2023-03-23T14:24:28;12.90;99.90
28189;DHT22;15471;51.166;4.470;2023-03-23T14:27:23;12.40;99.90
28189;DHT22;15471;51.166;4.470;2023-03-23T14:30:04;11.90;99.90
28189;DHT22;15471;51.166;4.470;2023-03-23T14:32:32;11.70;99.90
28189;DHT22;15471;51.166;4.470;2023-03-23T14:35:05;11.80;99.90
28189;DHT22;15471;51.166;4.470;2023-03-23T14:37:33;12.10;99.90
28189;DHT22;15471;51.166;4.470;2023-03-23T14:40:02;12.50;99.90
28189;DHT22;15471;51.166;4.470;2023-03-23T14:42:34;12.60;99.90
28189;DHT22;15471;51.166;4.470;2023-03-23T14:45:03;12.80;99.90
28189;DHT22;15471;51.166;4.470;2023-03-23T14:47:33;12.80;99.90
28189;DHT22;15471;51.166;4.470;2023-03-23T14:50:02;13.10;99.90
28189;DHT22;15471;51.166;4.470;2023-03-23T14:52:35;13.40;99.90
28189;DHT22;15471;51.166;4.470;2023-03-23T14:55:27;13.60;99.90
28189;DHT22;15471;51.166;4.470;2023-03-23T14:58:06;13.60;99.90
28189;DHT22;15471;51.166;4.470;2023-03-23T15:00:45;13.80;99.90
28189;DHT22;15471;51.166;4.470;2023-03-23T15:03:15;13.50;99.90
28189;DHT22;15471;51.166;4.470;2023-03-23T15:05:54;13.50;99.90
28189;DHT22;15471;51.166;4.470;2023-03-23T15:08:25;13.60;99.90
28189;DHT22;15471;51.166;4.470;2023-03-23T15:13:48;13.60;99.90
28189;DHT22;15471;51.166;4.470;2023-03-23T15:16:20;13.60;99.90
28189;DHT22;15471;51.166;4.470;2023-03-23T15:18:54;13.50;99.90
28189;DHT22;15471;51.166;4.470;2023-03-23T15:21:32;13.40;99.90
28189;DHT22;15471;51.166;4.470;2023-03-23T15:24:00;13.40;99.90
28189;DHT22;15471;51.166;4.470;2023-03-23T15:26:41;13.50;99.90
28189;DHT22;15471;51.166;4.470;2023-03-23T15:29:13;13.70;99.90
28189;DHT22;15471;51.166;4.470;2023-03-23T15:31:40;14.10;99.90
28189;DHT22;15471;51.166;4.470;2023-03-23T15:34:34;14.40;99.90
28189;DHT22;15471;51.166;4.470;2023-03-23T15:37:21;14.80;99.90
28189;DHT22;15471;51.166;4.470;2023-03-23T15:39:47;15.00;99.90
28189;DHT22;15471;51.166;4.470;2023-03-23T15:42:47;15.00;99.90
28189;DHT22;15471;51.166;4.470;2023-03-23T15:45:27;14.90;99.90
28189;DHT22;15471;51.166;4.470;2023-03-23T15:47:53;15.00;99.90
28189;DHT22;15471;51.166;4.470;2023-03-23T15:50:33;15.00;99.90
28189;DHT22;15471;51.166;4.470;2023-03-23T15:53:01;15.10;
28189;DHT22;15471;51.166;4.470;2023-03-23T15:55:38;15.10;99.90
28189;DHT22;15471;51.166;4.470;2023-03-23T15:58:10;15.30;99.90
28189;DHT22;15471;51.166;4.470;2023-03-23T16:00:36;15.40;99.90
28189;DHT22;15471;51.166;4.470;2023-03-23T16:03:06;15.30;99.90
28189;DHT22;15471;51.166;4.470;2023-03-23T16:05:33;15.50;99.90
28189;DHT22;15471;51.166;4.470;2023-03-23T16:08:00;15.40;99.90
28189;DHT22;15471;51.166;4.470;2023-03-23T16:10:27;15.30;99.90
28189;DHT22;15471;51.166;4.470;2023-03-23T16:12:53;15.20;99.90
28189;DHT22;15471;51.166;4.470;2023-03-23T16:15:19;15.10;99.90
28189;DHT22;15471;51.166;4.470;2023-03-23T16:17:46;15.00;99.90
28189;DHT22;15471;51.166;4.470;2023-03-23T16:20:19;14.80;99.90
28189;DHT22;15471;51.166;4.470;2023-03-23T16:22:46;14.50;99.90
28189;DHT22;15471;51.166;4.470;2023-03-23T16:25:13;14.20;99.90
28189;DHT22;15471;51.166;4.470;2023-03-23T16:27:41;13.90;99.90
28189;DHT22;15471;51.166;4.470;2023-03-23T16:30:14;13.70;99.90
28189;DHT22;15471;51.166;4.470;2023-03-23T16:32:41;13.40;99.90
28189;DHT22;15471;51.166;4.470;2023-03-23T16:35:08;13.30;99.90
28189;DHT22;15471;51.166;4.470;2023-03-23T16:37:35;13.30;99.90
28189;DHT22;15471;51.166;4.470;2023-03-23T16:40:02;13.40;99.90
28189;DHT22;15471;51.166;4.470;2023-03-23T16:42:29;13.40;99.90
28189;DHT22;15471;51.166;4.470;2023-03-23T16:44:55;13.30;99.90
28189;DHT22;15471;51.166;4.470;2023-03-23T16:47:21;13.40;99.90
28189;DHT22;15471;51.166;4.470;2023-03-23T16:49:52;13.40;99.90
28189;DHT22;15471;51.166;4.470;2023-03-23T16:52:19;13.40;99.90
28189;DHT22;15471;51.166;4.470;2023-03-23T16:54:45;13.30;99.90
28189;DHT22;15471;51.166;4.470;2023-03-23T16:57:11;13.30;99.90
28189;DHT22;15471;51.166;4.470;2023-03-23T16:59:37;13.40;99.90
28189;DHT22;15471;51.166;4.470;2023-03-23T17:02:03;13.40;99.90
28189;DHT22;15471;51.166;4.470;2023-03-23T17:04:31;13.40;99.90
28189;DHT22;15471;51.166;4.470;2023-03-23T17:06:58;13.40;99.90
28189;DHT22;15471;51.166;4.470;2023-03-23T17:09:25;13.50;99.90
28189;DHT22;15471;51.166;4.470;2023-03-23T17:11:52;13.50;99.90
28189;DHT22;15471;51.166;4.470;2023-03-23T17:14:21;13.70;99.90
28189;DHT22;15471;51.166;4.470;2023-03-23T17:16:47;13.80;99.90
28189;DHT22;15471;51.166;4.470;2023-03-23T17:19:16;13.70;99.90
28189;DHT22;15471;51.166;4.470;2023-03-23T17:21:43;13.60;99.90
28189;DHT22;15471;51.166;4.470;2023-03-23T17:24:14;13.60;99.90
28189;DHT22;15471;51.166;4.470;2023-03-23T17:26:46;13.50;99.90
28189;DHT22;15471;51.166;4.470;2023-03-23T17:29:13;13.50;99.90
28189;DHT22;15471;51.166;4.470;2023-03-23T17:31:49;13.50;99.90
28189;DHT22;15471;51.166;4.470;2023-03-23T17:34:16;13.50;99.90
28189;DHT22;15471;51.166;4.470;2023-03-23T17:36:45;13.50;99.90
28189;DHT22;15471;51.166;4.470;2023-03-23T17:39:19;13.50;99.90
28189;DHT22;15471;51.166;4.470;2023-03-23T17:41:57;13.50;99.90
28189;DHT22;15471;51.166;4.470;2023-03-23T17:44:24;13.50;99.90
28189;DHT22;15471;51.166;4.470;2023-03-23T17:46:51;13.50;99.90
28189;DHT22;15471;51.166;4.470;2023-03-23T17:49:22;13.60;99.90
28189;DHT22;15471;51.166;4.470;2023-03-23T17:51:52;13.50;99.90
28189;DHT22;15471;51.166;4.470;2023-03-23T17:54:18;13.60;99.90
28189;DHT22;15471;51.166;4.470;2023-03-23T17:56:44;13.60;99.90
28189;DHT22;15471;51.166;4.470;2023-03-23T17:59:13;13.50;99.90
28189;DHT22;15471;51.166;4.470;2023-03-23T18:01:46;13.50;99.90
28189;DHT22;15471;51.166;4.470;2023-03-23T18:04:16;13.50;99.90
28189;DHT22;15471;51.166;4.470;2023-03-23T18:06:45;13.50;99.90
28189;DHT22;15471;51.166;4.470;2023-03-23T18:09:12;13.50;99.90
28189;DHT22;15471;51.166;4.470;2023-03-23T18:11:38;13.50;99.90
28189;DHT22;15471;51.166;4.470;2023-03-23T18:14:06;13.40;99.90
28189;DHT22;15471;51.166;4.470;2023-03-23T18:16:33;13.40;99.90
28189;DHT22;15471;51.166;4.470;2023-03-23T18:18:59;13.50;99.90